F/V Carmalia — FMFK — position and weather

sailwx.info

Track history (hours):
 
Tides and Currents Weather Stations Pressure Air Temp Water Temp Dewpoint Dewpoint Depression Visibility Wind Speed Wind Dir Waves Ship Positions

F/V Carmalia

Last reported at 2017-Feb-19 02:11 UTC. Time now 2017-Feb-20 06:33 UTC.
Position N 47°19' W 005°03'.

Length 17 m.

Type: Fishing. MMSI: 228222900.

Date/timePositionNaut miles runAvg speedWind from/ knotsBaromVisibWave heightAir tempDewpointWater temp
2017-Feb-19 02:11N 47°19' W 005°03'4 1.5
2017-Feb-18 23:31N 47°22' W 004°59'27 6.2
2017-Feb-18 19:05N 47°28' W 004°20'5 9.2
2017-Feb-18 18:33N 47°30' W 004°13'9 9.3
2017-Feb-18 17:33N 47°33' W 004°00'9 9.4
2017-Feb-18 16:33N 47°36' W 003°47'10 9.6
2017-Feb-18 15:33N 47°39' W 003°34'9 8.8
2017-Feb-18 14:33N 47°43' W 003°22'1 0.8
2017-Feb-18 13:33N 47°44' W 003°22'0 0.0
2017-Feb-18 12:33N 47°44' W 003°22'0 0.0
2017-Feb-18 11:33N 47°44' W 003°22'0 0.0
2017-Feb-18 10:33N 47°44' W 003°22'8 8.4
2017-Feb-18 09:33N 47°39' W 003°33'9 9.3
2017-Feb-18 08:33N 47°37' W 003°46'9 9.3
2017-Feb-18 07:33N 47°34' W 003°59'12 9.5
2017-Feb-18 06:15N 47°30' W 004°16'7 9.6
2017-Feb-18 05:31N 47°28' W 004°26'9 9.5
2017-Feb-18 04:32N 47°25' W 004°40'15 6.7
2017-Feb-18 02:21N 47°19' W 004°59'3 3.1
2017-Feb-18 01:26N 47°16' W 004°60'1 1.4
2017-Feb-18 00:32N 47°15' W 004°58'2 2.1
2017-Feb-17 23:31N 47°18' W 004°58'  
2017-Feb-14 13:33N 47°36' W 003°51'9 9.3
2017-Feb-14 12:33N 47°38' W 003°38'10 9.7
2017-Feb-14 11:33N 47°41' W 003°24'2 1.9
2017-Feb-14 10:33N 47°42' W 003°22'2 2.0
2017-Feb-14 09:33N 47°41' W 003°24'3 3.2
2017-Feb-14 08:33N 47°44' W 003°22'0 0.0
2017-Feb-14 07:33N 47°44' W 003°22'  
2017-Feb-11 20:07N 47°44' W 003°22'0 0.2
2017-Feb-11 19:34N 47°44' W 003°22'0 0.1
2017-Feb-11 18:34N 47°44' W 003°22'0 0.0
2017-Feb-11 17:34N 47°44' W 003°22'0 0.0
2017-Feb-11 16:34N 47°44' W 003°22'0 0.0
2017-Feb-11 15:33N 47°44' W 003°22'2 1.6
2017-Feb-11 14:34N 47°42' W 003°22'1010.0
2017-Feb-11 13:33N 47°38' W 003°36'10 9.9
2017-Feb-11 12:33N 47°33' W 003°49'  
Track history (hours):
 
Tides and Currents Weather Stations Pressure Air Temp Water Temp Dewpoint Dewpoint Depression Visibility Wind Speed Wind Dir Waves Ship Positions

F/V Carmalia

Last reported at 2017-Feb-19 02:11 UTC. Time now 2017-Feb-20 06:33 UTC.
Position N 47°19' W 005°03'.

Length 17 m.

Type: Fishing. MMSI: 228222900.

Date/timePositionNaut miles runAvg speedWind from/ knotsBaromVisibWave heightAir tempDewpointWater temp
2017-Feb-19 02:11N 47°19' W 005°03'4 1.5
2017-Feb-18 23:31N 47°22' W 004°59'27 6.2
2017-Feb-18 19:05N 47°28' W 004°20'5 9.2
2017-Feb-18 18:33N 47°30' W 004°13'9 9.3
2017-Feb-18 17:33N 47°33' W 004°00'9 9.4
2017-Feb-18 16:33N 47°36' W 003°47'10 9.6
2017-Feb-18 15:33N 47°39' W 003°34'9 8.8
2017-Feb-18 14:33N 47°43' W 003°22'1 0.8
2017-Feb-18 13:33N 47°44' W 003°22'0 0.0
2017-Feb-18 12:33N 47°44' W 003°22'0 0.0
2017-Feb-18 11:33N 47°44' W 003°22'0 0.0
2017-Feb-18 10:33N 47°44' W 003°22'8 8.4
2017-Feb-18 09:33N 47°39' W 003°33'9 9.3
2017-Feb-18 08:33N 47°37' W 003°46'9 9.3
2017-Feb-18 07:33N 47°34' W 003°59'12 9.5
2017-Feb-18 06:15N 47°30' W 004°16'7 9.6
2017-Feb-18 05:31N 47°28' W 004°26'9 9.5
2017-Feb-18 04:32N 47°25' W 004°40'15 6.7
2017-Feb-18 02:21N 47°19' W 004°59'3 3.1
2017-Feb-18 01:26N 47°16' W 004°60'1 1.4
2017-Feb-18 00:32N 47°15' W 004°58'2 2.1
2017-Feb-17 23:31N 47°18' W 004°58'  
2017-Feb-14 13:33N 47°36' W 003°51'9 9.3
2017-Feb-14 12:33N 47°38' W 003°38'10 9.7
2017-Feb-14 11:33N 47°41' W 003°24'2 1.9
2017-Feb-14 10:33N 47°42' W 003°22'2 2.0
2017-Feb-14 09:33N 47°41' W 003°24'3 3.2
2017-Feb-14 08:33N 47°44' W 003°22'0 0.0
2017-Feb-14 07:33N 47°44' W 003°22'  
2017-Feb-11 20:07N 47°44' W 003°22'0 0.2
2017-Feb-11 19:34N 47°44' W 003°22'0 0.1
2017-Feb-11 18:34N 47°44' W 003°22'0 0.0
2017-Feb-11 17:34N 47°44' W 003°22'0 0.0
2017-Feb-11 16:34N 47°44' W 003°22'0 0.0
2017-Feb-11 15:33N 47°44' W 003°22'2 1.6
2017-Feb-11 14:34N 47°42' W 003°22'1010.0
2017-Feb-11 13:33N 47°38' W 003°36'10 9.9
2017-Feb-11 12:33N 47°33' W 003°49'  

Dump ship's entire track history